Gilbert, South Carolina
Current Conditions -  °F | °C
As of 1:56 PM on Tuesday 27 Jan 2015 (Local Time) from KCAE Reporting Station
Few Clouds Few Clouds  
Wind Chill: 42°   Ceiling: Unl
Heat Index: 47°   Visibility: 10mi
Dew Point: 27°   Wind: 12mph
Humidity: 46%   Direction: 280°W
Pressure: 29.86"   Gusts: NA
Location:  33.92°N, 81.39°W
Report Text: KCAE 271856Z 28010KT 10SM FEW120 08/M03 A2986 RMK AO2 SLP113 T00831028
Loading
Personal Weather Stations






























Interactive Weather Map New forecast layout! Learn more

10-Day Weather Forecast

Advertisements
Track Severe Weather on mobile